sensor_id;sensor_type;location;lat;lon;timestamp;temperature;humidity
5419;DHT22;2732;52.092;11.556;2022-07-29T00:04:47;17.00;64.40
5419;DHT22;2732;52.092;11.556;2022-07-29T00:09:48;16.90;64.40
5419;DHT22;2732;52.092;11.556;2022-07-29T00:14:49;16.90;64.70
5419;DHT22;2732;52.092;11.556;2022-07-29T00:19:49;16.80;65.40
5419;DHT22;2732;52.092;11.556;2022-07-29T00:24:50;16.80;65.80
5419;DHT22;2732;52.092;11.556;2022-07-29T00:29:51;16.70;66.00
5419;DHT22;2732;52.092;11.556;2022-07-29T00:34:51;16.70;66.20
5419;DHT22;2732;52.092;11.556;2022-07-29T00:40:11;16.70;66.80
5419;DHT22;2732;52.092;11.556;2022-07-29T00:45:12;16.60;67.10
5419;DHT22;2732;52.092;11.556;2022-07-29T00:50:14;16.50;67.40
5419;DHT22;2732;52.092;11.556;2022-07-29T00:55:15;16.50;67.70
5419;DHT22;2732;52.092;11.556;2022-07-29T01:00:22;16.40;68.00
5419;DHT22;2732;52.092;11.556;2022-07-29T01:05:26;16.40;68.30
5419;DHT22;2732;52.092;11.556;2022-07-29T01:10:28;16.30;68.50
5419;DHT22;2732;52.092;11.556;2022-07-29T01:15:29;16.30;68.90
5419;DHT22;2732;52.092;11.556;2022-07-29T01:21:18;16.20;69.10
5419;DHT22;2732;52.092;11.556;2022-07-29T01:32:08;16.10;69.60
5419;DHT22;2732;52.092;11.556;2022-07-29T01:37:26;16.00;70.50
5419;DHT22;2732;52.092;11.556;2022-07-29T01:42:44;16.00;70.20
5419;DHT22;2732;52.092;11.556;2022-07-29T01:48:12;15.90;70.30
5419;DHT22;2732;52.092;11.556;2022-07-29T01:53:29;15.80;70.70
5419;DHT22;2732;52.092;11.556;2022-07-29T01:58:33;15.70;71.20
5419;DHT22;2732;52.092;11.556;2022-07-29T02:03:36;15.70;71.70
5419;DHT22;2732;52.092;11.556;2022-07-29T02:08:39;15.60;72.00
5419;DHT22;2732;52.092;11.556;2022-07-29T02:13:40;15.50;72.50
5419;DHT22;2732;52.092;11.556;2022-07-29T02:18:43;15.50;72.80
5419;DHT22;2732;52.092;11.556;2022-07-29T02:23:46;15.40;73.20
5419;DHT22;2732;52.092;11.556;2022-07-29T02:28:49;15.40;73.60
5419;DHT22;2732;52.092;11.556;2022-07-29T02:33:53;15.30;73.80
5419;DHT22;2732;52.092;11.556;2022-07-29T02:38:55;15.30;74.30
5419;DHT22;2732;52.092;11.556;2022-07-29T02:44:03;15.20;74.70
5419;DHT22;2732;52.092;11.556;2022-07-29T02:54:56;15.20;76.30
5419;DHT22;2732;52.092;11.556;2022-07-29T03:00:06;15.10;76.20
5419;DHT22;2732;52.092;11.556;2022-07-29T03:05:11;15.10;76.70
5419;DHT22;2732;52.092;11.556;2022-07-29T03:10:14;15.10;77.20
5419;DHT22;2732;52.092;11.556;2022-07-29T03:15:16;15.10;77.80
5419;DHT22;2732;52.092;11.556;2022-07-29T03:20:17;15.00;78.30
5419;DHT22;2732;52.092;11.556;2022-07-29T03:25:19;15.00;78.70
5419;DHT22;2732;52.092;11.556;2022-07-29T03:30:20;15.00;79.60
5419;DHT22;2732;52.092;11.556;2022-07-29T03:35:20;15.00;80.00
5419;DHT22;2732;52.092;11.556;2022-07-29T03:40:30;15.00;80.60
5419;DHT22;2732;52.092;11.556;2022-07-29T03:45:33;15.00;81.30
5419;DHT22;2732;52.092;11.556;2022-07-29T03:50:34;15.00;81.90
5419;DHT22;2732;52.092;11.556;2022-07-29T03:55:45;15.00;82.30
5419;DHT22;2732;52.092;11.556;2022-07-29T04:00:48;15.00;83.00
5419;DHT22;2732;52.092;11.556;2022-07-29T04:06:00;15.00;83.70
5419;DHT22;2732;52.092;11.556;2022-07-29T04:11:06;15.00;84.30
5419;DHT22;2732;52.092;11.556;2022-07-29T04:16:07;15.00;84.80
5419;DHT22;2732;52.092;11.556;2022-07-29T04:21:07;15.00;85.20
5419;DHT22;2732;52.092;11.556;2022-07-29T04:26:08;15.10;85.50
5419;DHT22;2732;52.092;11.556;2022-07-29T04:31:12;15.10;85.70
5419;DHT22;2732;52.092;11.556;2022-07-29T04:36:13;15.20;86.10
5419;DHT22;2732;52.092;11.556;2022-07-29T04:41:13;15.20;86.80
5419;DHT22;2732;52.092;11.556;2022-07-29T04:46:14;15.30;87.20
5419;DHT22;2732;52.092;11.556;2022-07-29T04:51:15;15.30;87.70
5419;DHT22;2732;52.092;11.556;2022-07-29T04:56:16;15.40;88.10
5419;DHT22;2732;52.092;11.556;2022-07-29T05:01:16;15.50;88.40
5419;DHT22;2732;52.092;11.556;2022-07-29T05:06:17;15.60;89.00
5419;DHT22;2732;52.092;11.556;2022-07-29T05:11:18;15.70;89.40
5419;DHT22;2732;52.092;11.556;2022-07-29T05:16:18;15.70;89.40
5419;DHT22;2732;52.092;11.556;2022-07-29T05:21:19;15.80;89.60
5419;DHT22;2732;52.092;11.556;2022-07-29T05:26:20;15.90;89.30
5419;DHT22;2732;52.092;11.556;2022-07-29T05:31:20;15.90;89.50
5419;DHT22;2732;52.092;11.556;2022-07-29T05:36:21;16.00;90.00
5419;DHT22;2732;52.092;11.556;2022-07-29T05:41:21;16.10;89.40
5419;DHT22;2732;52.092;11.556;2022-07-29T05:46:22;16.20;89.40
5419;DHT22;2732;52.092;11.556;2022-07-29T05:51:23;16.30;89.30
5419;DHT22;2732;52.092;11.556;2022-07-29T05:56:24;16.40;89.20
5419;DHT22;2732;52.092;11.556;2022-07-29T06:01:25;16.60;89.30
5419;DHT22;2732;52.092;11.556;2022-07-29T06:06:26;16.70;88.70
5419;DHT22;2732;52.092;11.556;2022-07-29T06:11:27;16.90;88.60
5419;DHT22;2732;52.092;11.556;2022-07-29T06:16:27;17.10;88.30
5419;DHT22;2732;52.092;11.556;2022-07-29T06:21:28;17.30;87.90
5419;DHT22;2732;52.092;11.556;2022-07-29T06:26:28;17.50;87.40
5419;DHT22;2732;52.092;11.556;2022-07-29T06:31:29;17.80;87.10
5419;DHT22;2732;52.092;11.556;2022-07-29T06:36:30;18.00;86.40
5419;DHT22;2732;52.092;11.556;2022-07-29T06:41:31;18.30;86.40
5419;DHT22;2732;52.092;11.556;2022-07-29T06:46:31;18.40;85.60
5419;DHT22;2732;52.092;11.556;2022-07-29T06:51:32;18.60;85.40
5419;DHT22;2732;52.092;11.556;2022-07-29T06:56:34;18.70;85.20
5419;DHT22;2732;52.092;11.556;2022-07-29T07:01:38;18.80;85.00
5419;DHT22;2732;52.092;11.556;2022-07-29T07:06:40;18.80;84.60
5419;DHT22;2732;52.092;11.556;2022-07-29T07:11:41;19.00;84.40
5419;DHT22;2732;52.092;11.556;2022-07-29T07:16:41;19.10;84.10
5419;DHT22;2732;52.092;11.556;2022-07-29T07:21:42;19.30;83.80
5419;DHT22;2732;52.092;11.556;2022-07-29T07:26:43;19.30;83.20
5419;DHT22;2732;52.092;11.556;2022-07-29T07:31:43;19.40;83.50
5419;DHT22;2732;52.092;11.556;2022-07-29T07:36:44;19.40;83.50
5419;DHT22;2732;52.092;11.556;2022-07-29T07:41:44;19.40;83.10
5419;DHT22;2732;52.092;11.556;2022-07-29T07:46:45;19.50;82.90
5419;DHT22;2732;52.092;11.556;2022-07-29T07:51:46;19.70;82.70
5419;DHT22;2732;52.092;11.556;2022-07-29T07:56:46;20.00;82.20
5419;DHT22;2732;52.092;11.556;2022-07-29T08:01:50;20.40;81.50
5419;DHT22;2732;52.092;11.556;2022-07-29T08:06:50;20.80;80.80
5419;DHT22;2732;52.092;11.556;2022-07-29T08:11:51;21.30;79.80
5419;DHT22;2732;52.092;11.556;2022-07-29T08:16:52;21.60;79.00
5419;DHT22;2732;52.092;11.556;2022-07-29T08:21:54;22.00;78.20
5419;DHT22;2732;52.092;11.556;2022-07-29T08:26:54;22.30;77.40
5419;DHT22;2732;52.092;11.556;2022-07-29T08:31:55;22.60;76.60
5419;DHT22;2732;52.092;11.556;2022-07-29T08:36:56;22.80;75.70
5419;DHT22;2732;52.092;11.556;2022-07-29T08:41:57;23.00;75.40
5419;DHT22;2732;52.092;11.556;2022-07-29T08:46:58;23.30;74.50
5419;DHT22;2732;52.092;11.556;2022-07-29T08:52:00;24.10;72.90
5419;DHT22;2732;52.092;11.556;2022-07-29T08:57:01;24.90;71.60
5419;DHT22;2732;52.092;11.556;2022-07-29T09:02:03;25.50;70.10
5419;DHT22;2732;52.092;11.556;2022-07-29T09:07:04;25.60;69.30
5419;DHT22;2732;52.092;11.556;2022-07-29T09:12:06;25.50;69.20
5419;DHT22;2732;52.092;11.556;2022-07-29T09:17:08;25.90;68.40
5419;DHT22;2732;52.092;11.556;2022-07-29T09:22:09;25.80;68.00
5419;DHT22;2732;52.092;11.556;2022-07-29T09:32:28;27.00;64.90
5419;DHT22;2732;52.092;11.556;2022-07-29T09:37:29;27.50;63.80
5419;DHT22;2732;52.092;11.556;2022-07-29T09:42:30;28.10;63.00
5419;DHT22;2732;52.092;11.556;2022-07-29T09:47:44;28.60;61.80
5419;DHT22;2732;52.092;11.556;2022-07-29T09:52:49;29.10;60.20
5419;DHT22;2732;52.092;11.556;2022-07-29T09:57:51;29.50;58.90
5419;DHT22;2732;52.092;11.556;2022-07-29T10:02:59;29.80;58.50
5419;DHT22;2732;52.092;11.556;2022-07-29T10:08:01;30.30;58.00
5419;DHT22;2732;52.092;11.556;2022-07-29T10:13:08;30.70;57.00
5419;DHT22;2732;52.092;11.556;2022-07-29T10:18:11;31.00;56.00
5419;DHT22;2732;52.092;11.556;2022-07-29T10:23:12;31.40;55.30
5419;DHT22;2732;52.092;11.556;2022-07-29T10:28:12;31.80;54.50
5419;DHT22;2732;52.092;11.556;2022-07-29T10:33:24;32.00;53.40
5419;DHT22;2732;52.092;11.556;2022-07-29T10:44:02;32.80;51.70
5419;DHT22;2732;52.092;11.556;2022-07-29T10:49:15;32.90;51.20
5419;DHT22;2732;52.092;11.556;2022-07-29T10:54:19;33.20;50.20
5419;DHT22;2732;52.092;11.556;2022-07-29T10:59:36;33.20;49.50
5419;DHT22;2732;52.092;11.556;2022-07-29T11:09:43;33.50;49.10
5419;DHT22;2732;52.092;11.556;2022-07-29T11:25:41;35.20;46.00
5419;DHT22;2732;52.092;11.556;2022-07-29T11:30:53;35.60;45.40
5419;DHT22;2732;52.092;11.556;2022-07-29T11:36:08;35.70;43.70
5419;DHT22;2732;52.092;11.556;2022-07-29T11:41:24;35.10;43.90
5419;DHT22;2732;52.092;11.556;2022-07-29T11:46:45;35.50;44.10
5419;DHT22;2732;52.092;11.556;2022-07-29T11:51:51;36.10;43.60
5419;DHT22;2732;52.092;11.556;2022-07-29T11:56:53;36.50;42.70
5419;DHT22;2732;52.092;11.556;2022-07-29T12:01:55;36.10;41.60
5419;DHT22;2732;52.092;11.556;2022-07-29T12:06:57;35.90;42.40
5419;DHT22;2732;52.092;11.556;2022-07-29T12:11:58;35.70;42.40
5419;DHT22;2732;52.092;11.556;2022-07-29T12:17:00;36.00;42.70
5419;DHT22;2732;52.092;11.556;2022-07-29T12:22:00;36.20;41.70
5419;DHT22;2732;52.092;11.556;2022-07-29T12:27:01;36.90;41.70
5419;DHT22;2732;52.092;11.556;2022-07-29T12:32:03;36.40;41.20
5419;DHT22;2732;52.092;11.556;2022-07-29T12:37:06;35.60;41.40
5419;DHT22;2732;52.092;11.556;2022-07-29T12:42:14;35.00;41.50
5419;DHT22;2732;52.092;11.556;2022-07-29T12:47:17;35.00;41.90
5419;DHT22;2732;52.092;11.556;2022-07-29T12:52:33;35.40;41.80
5419;DHT22;2732;52.092;11.556;2022-07-29T12:57:48;35.30;41.50
5419;DHT22;2732;52.092;11.556;2022-07-29T13:02:57;35.00;41.20
5419;DHT22;2732;52.092;11.556;2022-07-29T13:08:12;35.40;41.20
5419;DHT22;2732;52.092;11.556;2022-07-29T13:13:15;36.40;40.70
5419;DHT22;2732;52.092;11.556;2022-07-29T13:18:29;37.10;40.00
5419;DHT22;2732;52.092;11.556;2022-07-29T13:23:30;37.70;39.70
5419;DHT22;2732;52.092;11.556;2022-07-29T13:31:45;37.90;38.50
5419;DHT22;2732;52.092;11.556;2022-07-29T13:36:46;37.80;39.40
5419;DHT22;2732;52.092;11.556;2022-07-29T13:41:47;37.30;38.40
5419;DHT22;2732;52.092;11.556;2022-07-29T13:46:47;37.20;38.70
5419;DHT22;2732;52.092;11.556;2022-07-29T13:51:49;37.10;39.10
5419;DHT22;2732;52.092;11.556;2022-07-29T13:56:50;37.50;38.50
5419;DHT22;2732;52.092;11.556;2022-07-29T14:01:51;37.20;37.80
5419;DHT22;2732;52.092;11.556;2022-07-29T14:06:52;36.60;38.30
5419;DHT22;2732;52.092;11.556;2022-07-29T14:11:52;36.30;38.60
5419;DHT22;2732;52.092;11.556;2022-07-29T14:16:53;36.60;38.70
5419;DHT22;2732;52.092;11.556;2022-07-29T14:21:54;36.50;38.90
5419;DHT22;2732;52.092;11.556;2022-07-29T14:26:54;36.00;38.80
5419;DHT22;2732;52.092;11.556;2022-07-29T14:31:55;35.60;39.50
5419;DHT22;2732;52.092;11.556;2022-07-29T14:36:55;35.40;39.50
5419;DHT22;2732;52.092;11.556;2022-07-29T14:41:56;35.10;39.60
5419;DHT22;2732;52.092;11.556;2022-07-29T14:46:58;34.70;40.00
5419;DHT22;2732;52.092;11.556;2022-07-29T14:52:00;34.40;39.70
5419;DHT22;2732;52.092;11.556;2022-07-29T14:57:00;34.10;39.80
5419;DHT22;2732;52.092;11.556;2022-07-29T15:02:01;33.90;40.20
5419;DHT22;2732;52.092;11.556;2022-07-29T15:07:02;33.70;40.10
5419;DHT22;2732;52.092;11.556;2022-07-29T15:12:03;33.50;40.30
5419;DHT22;2732;52.092;11.556;2022-07-29T15:17:04;33.40;40.60
5419;DHT22;2732;52.092;11.556;2022-07-29T15:22:05;33.40;40.60
5419;DHT22;2732;52.092;11.556;2022-07-29T15:27:06;33.90;40.00
5419;DHT22;2732;52.092;11.556;2022-07-29T15:32:06;34.20;40.10
5419;DHT22;2732;52.092;11.556;2022-07-29T15:37:08;34.30;39.80
5419;DHT22;2732;52.092;11.556;2022-07-29T15:42:08;34.30;39.50
5419;DHT22;2732;52.092;11.556;2022-07-29T15:47:09;34.70;39.40
5419;DHT22;2732;52.092;11.556;2022-07-29T15:52:10;35.00;39.70
5419;DHT22;2732;52.092;11.556;2022-07-29T15:57:11;35.10;39.40
5419;DHT22;2732;52.092;11.556;2022-07-29T16:02:12;35.20;39.40
5419;DHT22;2732;52.092;11.556;2022-07-29T16:07:12;34.80;39.60
5419;DHT22;2732;52.092;11.556;2022-07-29T16:12:13;34.70;39.70
5419;DHT22;2732;52.092;11.556;2022-07-29T16:17:14;34.80;39.80
5419;DHT22;2732;52.092;11.556;2022-07-29T16:22:14;34.90;40.20
5419;DHT22;2732;52.092;11.556;2022-07-29T16:27:15;34.80;40.20
5419;DHT22;2732;52.092;11.556;2022-07-29T16:32:16;34.70;40.30
5419;DHT22;2732;52.092;11.556;2022-07-29T16:37:17;34.70;40.30
5419;DHT22;2732;52.092;11.556;2022-07-29T16:42:17;34.70;40.60
5419;DHT22;2732;52.092;11.556;2022-07-29T16:47:18;34.70;40.50
5419;DHT22;2732;52.092;11.556;2022-07-29T16:52:19;34.70;39.60
5419;DHT22;2732;52.092;11.556;2022-07-29T16:57:19;34.40;39.80
5419;DHT22;2732;52.092;11.556;2022-07-29T17:02:21;34.00;40.00
5419;DHT22;2732;52.092;11.556;2022-07-29T17:07:21;33.60;40.40
5419;DHT22;2732;52.092;11.556;2022-07-29T17:12:22;33.40;41.10
5419;DHT22;2732;52.092;11.556;2022-07-29T17:17:23;33.20;40.90
5419;DHT22;2732;52.092;11.556;2022-07-29T17:22:24;32.90;41.00
5419;DHT22;2732;52.092;11.556;2022-07-29T17:27:25;32.60;41.80
5419;DHT22;2732;52.092;11.556;2022-07-29T17:32:25;32.40;41.30
5419;DHT22;2732;52.092;11.556;2022-07-29T17:37:26;32.10;41.50
5419;DHT22;2732;52.092;11.556;2022-07-29T17:42:28;31.80;41.60
5419;DHT22;2732;52.092;11.556;2022-07-29T17:47:28;31.50;41.80
5419;DHT22;2732;52.092;11.556;2022-07-29T17:52:29;31.20;42.20
5419;DHT22;2732;52.092;11.556;2022-07-29T17:57:29;31.00;42.80
5419;DHT22;2732;52.092;11.556;2022-07-29T18:02:30;30.70;43.10
5419;DHT22;2732;52.092;11.556;2022-07-29T18:07:31;30.50;43.80
5419;DHT22;2732;52.092;11.556;2022-07-29T18:12:31;30.20;44.10
5419;DHT22;2732;52.092;11.556;2022-07-29T18:17:32;30.00;44.50
5419;DHT22;2732;52.092;11.556;2022-07-29T18:22:33;29.70;45.00
5419;DHT22;2732;52.092;11.556;2022-07-29T18:27:34;29.50;45.60
5419;DHT22;2732;52.092;11.556;2022-07-29T18:32:34;29.20;46.00
5419;DHT22;2732;52.092;11.556;2022-07-29T18:37:35;29.00;46.40
5419;DHT22;2732;52.092;11.556;2022-07-29T18:42:36;28.70;46.80
5419;DHT22;2732;52.092;11.556;2022-07-29T18:47:40;28.50;47.30
5419;DHT22;2732;52.092;11.556;2022-07-29T18:52:41;28.20;47.50
5419;DHT22;2732;52.092;11.556;2022-07-29T18:57:42;28.00;47.90
5419;DHT22;2732;52.092;11.556;2022-07-29T19:02:42;27.80;48.10
5419;DHT22;2732;52.092;11.556;2022-07-29T19:07:43;27.60;48.50
5419;DHT22;2732;52.092;11.556;2022-07-29T19:12:44;27.40;48.80
5419;DHT22;2732;52.092;11.556;2022-07-29T19:17:44;27.20;49.10
5419;DHT22;2732;52.092;11.556;2022-07-29T19:22:45;27.00;49.40
5419;DHT22;2732;52.092;11.556;2022-07-29T19:27:46;26.80;49.80
5419;DHT22;2732;52.092;11.556;2022-07-29T19:32:46;26.70;50.20
5419;DHT22;2732;52.092;11.556;2022-07-29T19:37:47;26.60;50.20
5419;DHT22;2732;52.092;11.556;2022-07-29T19:42:48;26.40;50.70
5419;DHT22;2732;52.092;11.556;2022-07-29T19:47:51;26.30;50.90
5419;DHT22;2732;52.092;11.556;2022-07-29T19:52:52;26.10;51.10
5419;DHT22;2732;52.092;11.556;2022-07-29T19:57:52;26.00;51.40
5419;DHT22;2732;52.092;11.556;2022-07-29T20:02:53;25.90;51.70
5419;DHT22;2732;52.092;11.556;2022-07-29T20:07:55;25.80;51.90
5419;DHT22;2732;52.092;11.556;2022-07-29T20:12:56;25.60;52.20
5419;DHT22;2732;52.092;11.556;2022-07-29T20:17:57;25.50;52.50
5419;DHT22;2732;52.092;11.556;2022-07-29T20:22:58;25.40;52.60
5419;DHT22;2732;52.092;11.556;2022-07-29T20:27:58;25.30;52.80
5419;DHT22;2732;52.092;11.556;2022-07-29T20:32:59;25.20;52.90
5419;DHT22;2732;52.092;11.556;2022-07-29T20:38:00;25.10;53.20
5419;DHT22;2732;52.092;11.556;2022-07-29T20:43:01;25.00;53.50
5419;DHT22;2732;52.092;11.556;2022-07-29T20:48:01;24.90;53.60
5419;DHT22;2732;52.092;11.556;2022-07-29T20:53:02;24.90;53.70
5419;DHT22;2732;52.092;11.556;2022-07-29T20:58:03;24.80;53.90
5419;DHT22;2732;52.092;11.556;2022-07-29T21:03:04;24.70;54.10
5419;DHT22;2732;52.092;11.556;2022-07-29T21:08:05;24.60;54.10
5419;DHT22;2732;52.092;11.556;2022-07-29T21:13:05;24.50;54.30
5419;DHT22;2732;52.092;11.556;2022-07-29T21:18:06;24.50;54.60
5419;DHT22;2732;52.092;11.556;2022-07-29T21:23:15;24.40;54.70
5419;DHT22;2732;52.092;11.556;2022-07-29T21:28:16;24.30;54.90
5419;DHT22;2732;52.092;11.556;2022-07-29T21:33:27;24.30;55.10
5419;DHT22;2732;52.092;11.556;2022-07-29T21:38:29;24.10;55.30
5419;DHT22;2732;52.092;11.556;2022-07-29T21:43:31;24.10;55.40
5419;DHT22;2732;52.092;11.556;2022-07-29T21:48:32;24.00;55.60
5419;DHT22;2732;52.092;11.556;2022-07-29T21:53:32;23.90;55.70
5419;DHT22;2732;52.092;11.556;2022-07-29T21:58:33;23.90;55.90
5419;DHT22;2732;52.092;11.556;2022-07-29T22:03:33;23.80;55.90
5419;DHT22;2732;52.092;11.556;2022-07-29T22:08:34;23.70;55.90
5419;DHT22;2732;52.092;11.556;2022-07-29T22:13:35;23.60;56.10
5419;DHT22;2732;52.092;11.556;2022-07-29T22:18:35;23.60;56.20
5419;DHT22;2732;52.092;11.556;2022-07-29T22:23:36;23.50;56.30
5419;DHT22;2732;52.092;11.556;2022-07-29T22:28:36;23.50;56.40
5419;DHT22;2732;52.092;11.556;2022-07-29T22:33:37;23.50;56.50
5419;DHT22;2732;52.092;11.556;2022-07-29T22:38:38;23.40;56.50
5419;DHT22;2732;52.092;11.556;2022-07-29T22:43:39;23.30;57.10
5419;DHT22;2732;52.092;11.556;2022-07-29T22:48:40;23.30;56.60
5419;DHT22;2732;52.092;11.556;2022-07-29T22:53:40;23.20;56.80
5419;DHT22;2732;52.092;11.556;2022-07-29T22:58:42;23.10;56.90
5419;DHT22;2732;52.092;11.556;2022-07-29T23:03:43;23.10;57.10
5419;DHT22;2732;52.092;11.556;2022-07-29T23:08:44;23.00;57.10
5419;DHT22;2732;52.092;11.556;2022-07-29T23:13:44;22.90;57.20
5419;DHT22;2732;52.092;11.556;2022-07-29T23:18:45;22.80;57.70
5419;DHT22;2732;52.092;11.556;2022-07-29T23:23:47;22.80;57.40
5419;DHT22;2732;52.092;11.556;2022-07-29T23:28:48;22.70;57.50
5419;DHT22;2732;52.092;11.556;2022-07-29T23:33:48;22.60;57.50
5419;DHT22;2732;52.092;11.556;2022-07-29T23:38:49;22.60;57.70
5419;DHT22;2732;52.092;11.556;2022-07-29T23:43:50;22.50;57.70
5419;DHT22;2732;52.092;11.556;2022-07-29T23:48:50;22.50;57.90
5419;DHT22;2732;52.092;11.556;2022-07-29T23:53:51;22.50;57.80
5419;DHT22;2732;52.092;11.556;2022-07-29T23:58:51;22.40;57.70
